Terminal Aerodrome Forecast
Issued by NWS

Home | Current Version | Previous Version | Text Only | Print | Product List | Glossary On
Versions: 1 2 3 4 5 6 7 8 9 10 11 12 13 14 15 16 17 18 19 20 21 22 23 24 25 26
035
FTUS43 KEAX 200520
TAFMKC
TAF
KMKC 200520Z 2006/2106 VRB03KT 3SM BR OVC012
      TEMPO 2006/2008 2SM BR OVC006
     FM200800 VRB03KT 1SM BR OVC003
     FM201500 11006KT 3SM BR OVC003
     FM201800 11006KT P6SM OVC012
     FM210100 VRB05KT P6SM BKN035=

USA.gov is the U.S. government's official web portal to all federal, state and local government web resources and services.